^^
Station Historical Data
Daily Summary for April 13, 2017 Units:  Both    English   Metric
« Previous Day
Next Day »
Daily Weekly Monthly Yearly Custom
  High: Low: Average:
Temperature: 77.2 °F /  25.1 °C 49.8 °F /  9.9 °C 61.4 °F /  16.3 °C
Dew Point: 58.1 °F /  14.5 °C 41.0 °F /  5 °C 49 °F /  9.4 °C
Humidity: 97% 29% 69%
Wind Speed: 13.0mph /  20.9km/h - 1.3mph /  2.1km/h
Wind Gust: 13.0mph /  20.9km/h - -
Wind- - SSW
Pressure: 29.92 in /  1013.1 hPa 29.81 in /  1009.4 hPa -
Precipitation: 0.01 in /  0.25 mm    
Historical Graphs
 
 
Tabular Data for April 13, 2017
Time Temperature Dew Point Pressure Wind Wind Speed Wind Gust Humidity Rainfall Rate (Hourly) solar Conditions
00:03 52.3 °F /  11.3 °C 50.4 °F /  10.2 °C 29.88in /  1011.7hPa Calm     93% 0.00in /  0mm 0.0 W/m2
00:09 52.3 °F /  11.3 °C 50.7 °F /  10.4 °C 29.88in /  1011.7hPa Calm     94% 0.00in /  0mm 0.0 W/m2
00:15 52.2 °F /  11.2 °C 50.5 °F /  10.3 °C 29.88in /  1011.7hPa Calm     94% 0.00in /  0mm 0.0 W/m2
00:21 52.2 °F /  11.2 °C 50.5 °F /  10.3 °C 29.88in /  1011.7hPa Calm     94% 0.00in /  0mm 0.0 W/m2
00:28 52.2 °F /  11.2 °C 50.5 °F /  10.3 °C 29.88in /  1011.7hPa Calm     94% 0.00in /  0mm 0.0 W/m2
00:34 52.2 °F /  11.2 °C 50.5 °F /  10.3 °C 29.88in /  1011.7hPa Calm     94% 0.00in /  0mm 0.0 W/m2
00:40 52.0 °F /  11.1 °C 50.4 °F /  10.2 °C 29.88in /  1011.7hPa Calm     94% 0.00in /  0mm 0.0 W/m2
00:46 52.0 °F /  11.1 °C 50.4 °F /  10.2 °C 29.88in /  1011.7hPa Calm   1.0mph /  1.6km/h 94% 0.00in /  0mm 0.0 W/m2
00:52 52.0 °F /  11.1 °C 50.4 °F /  10.2 °C 29.88in /  1011.7hPa Calm     94% 0.00in /  0mm 0.0 W/m2
00:58 52.0 °F /  11.1 °C 50.4 °F /  10.2 °C 29.88in /  1011.7hPa Calm     94% 0.00in /  0mm 0.0 W/m2
01:04 52.0 °F /  11.1 °C 50.4 °F /  10.2 °C 29.88in /  1011.7hPa Calm     94% 0.00in /  0mm 0.0 W/m2
01:10 52.0 °F /  11.1 °C 50.4 °F /  10.2 °C 29.88in /  1011.7hPa Calm     94% 0.00in /  0mm 0.0 W/m2
01:16 52.0 °F /  11.1 °C 50.4 °F /  10.2 °C 29.88in /  1011.7hPa Calm     94% 0.00in /  0mm 0.0 W/m2
01:22 52.0 °F /  11.1 °C 50.4 °F /  10.2 °C 29.88in /  1011.7hPa Calm     94% 0.00in /  0mm 0.0 W/m2
01:28 51.8 °F /  11 °C 50.2 °F /  10.1 °C 29.88in /  1011.7hPa Calm     94% 0.00in /  0mm 0.0 W/m2
01:34 51.8 °F /  11 °C 50.4 °F /  10.2 °C 29.88in /  1011.7hPa Calm   2.0mph /  3.2km/h 95% 0.00in /  0mm 0.0 W/m2
01:40 51.6 °F /  10.9 °C 50.2 °F /  10.1 °C 29.87in /  1011.4hPa East 0.9mph /  1.4km/h 1.0mph /  1.6km/h 95% 0.00in /  0mm 0.0 W/m2
01:46 51.6 °F /  10.9 °C 50.2 °F /  10.1 °C 29.87in /  1011.4hPa Calm   2.0mph /  3.2km/h 95% 0.00in /  0mm 0.0 W/m2
01:52 51.6 °F /  10.9 °C 50.2 °F /  10.1 °C 29.87in /  1011.4hPa Calm   2.0mph /  3.2km/h 95% 0.00in /  0mm 0.0 W/m2
01:58 51.4 °F /  10.8 °C 49.8 °F /  9.9 °C 29.87in /  1011.4hPa Calm   1.0mph /  1.6km/h 94% 0.00in /  0mm 0.0 W/m2
02:04 51.4 °F /  10.8 °C 49.8 °F /  9.9 °C 29.87in /  1011.4hPa Calm   1.0mph /  1.6km/h 94% 0.00in /  0mm 0.0 W/m2
02:10 51.3 °F /  10.7 °C 49.6 °F /  9.8 °C 29.86in /  1011.1hPa Calm   1.0mph /  1.6km/h 94% 0.00in /  0mm 0.0 W/m2
02:17 51.3 °F /  10.7 °C 49.6 °F /  9.8 °C 29.86in /  1011.1hPa Calm   2.0mph /  3.2km/h 94% 0.00in /  0mm 0.0 W/m2
02:22 51.3 °F /  10.7 °C 49.8 °F /  9.9 °C 29.86in /  1011.1hPa Calm     95% 0.00in /  0mm 0.0 W/m2
02:28 51.3 °F /  10.7 °C 49.8 °F /  9.9 °C 29.86in /  1011.1hPa Calm     95% 0.00in /  0mm 0.0 W/m2
02:34 51.3 °F /  10.7 °C 49.8 °F /  9.9 °C 29.86in /  1011.1hPa Calm     95% 0.00in /  0mm 0.0 W/m2
02:40 51.1 °F /  10.6 °C 49.6 °F /  9.8 °C 29.86in /  1011.1hPa Calm     95% 0.00in /  0mm 0.0 W/m2
02:46 51.1 °F /  10.6 °C 49.6 °F /  9.8 °C 29.86in /  1011.1hPa Calm     95% 0.00in /  0mm 0.0 W/m2
02:52 50.9 °F /  10.5 °C 49.3 °F /  9.6 °C 29.85in /  1010.7hPa Calm     94% 0.00in /  0mm 0.0 W/m2
02:58 50.9 °F /  10.5 °C 49.3 °F /  9.6 °C 29.85in /  1010.7hPa Calm     94% 0.00in /  0mm 0.0 W/m2
03:05 50.7 °F /  10.4 °C 49.3 °F /  9.6 °C 29.85in /  1010.7hPa Calm     95% 0.00in /  0mm 0.0 W/m2
03:11 50.7 °F /  10.4 °C 49.3 °F /  9.6 °C 29.85in /  1010.7hPa Calm     95% 0.00in /  0mm 0.0 W/m2
03:17 50.7 °F /  10.4 °C 49.3 °F /  9.6 °C 29.85in /  1010.7hPa Calm     95% 0.00in /  0mm 0.0 W/m2
03:23 50.5 °F /  10.3 °C 49.1 °F /  9.5 °C 29.85in /  1010.7hPa Calm     95% 0.00in /  0mm 0.0 W/m2
03:29 50.5 °F /  10.3 °C 49.1 °F /  9.5 °C 29.85in /  1010.7hPa Calm     95% 0.00in /  0mm 0.0 W/m2
03:35 50.5 °F /  10.3 °C 49.1 °F /  9.5 °C 29.85in /  1010.7hPa Calm   1.0mph /  1.6km/h 95% 0.00in /  0mm 0.0 W/m2
03:41 50.5 °F /  10.3 °C 49.1 °F /  9.5 °C 29.85in /  1010.7hPa Calm   2.0mph /  3.2km/h 95% 0.00in /  0mm 0.0 W/m2
03:47 50.5 °F /  10.3 °C 49.1 °F /  9.5 °C 29.85in /  1010.7hPa ESE 0.9mph /  1.4km/h 3.0mph /  4.8km/h 95% 0.00in /  0mm 0.0 W/m2
03:53 50.4 °F /  10.2 °C 48.9 °F /  9.4 °C 29.85in /  1010.7hPa Calm   2.0mph /  3.2km/h 95% 0.00in /  0mm 0.0 W/m2
03:59 50.4 °F /  10.2 °C 48.9 °F /  9.4 °C 29.85in /  1010.7hPa Calm   2.0mph /  3.2km/h 95% 0.00in /  0mm 0.0 W/m2
04:05 50.4 °F /  10.2 °C 48.9 °F /  9.4 °C 29.85in /  1010.7hPa Calm   2.0mph /  3.2km/h 95% 0.00in /  0mm 0.0 W/m2
04:11 50.4 °F /  10.2 °C 48.9 °F /  9.4 °C 29.85in /  1010.7hPa Calm   2.0mph /  3.2km/h 95% 0.00in /  0mm 0.0 W/m2
04:17 50.4 °F /  10.2 °C 48.9 °F /  9.4 °C 29.85in /  1010.7hPa Calm   2.0mph /  3.2km/h 95% 0.00in /  0mm 0.0 W/m2
04:23 50.4 °F /  10.2 °C 48.9 °F /  9.4 °C 29.85in /  1010.7hPa Calm     95% 0.00in /  0mm 0.0 W/m2
04:29 50.4 °F /  10.2 °C 48.9 °F /  9.4 °C 29.85in /  1010.7hPa ESE 0.9mph /  1.4km/h 2.0mph /  3.2km/h 95% 0.00in /  0mm 0.0 W/m2
04:35 50.4 °F /  10.2 °C 48.9 °F /  9.4 °C 29.85in /  1010.7hPa Calm   1.0mph /  1.6km/h 95% 0.00in /  0mm 0.0 W/m2
04:41 50.4 °F /  10.2 °C 48.9 °F /  9.4 °C 29.86in /  1011.1hPa Calm   1.0mph /  1.6km/h 95% 0.00in /  0mm 0.0 W/m2
04:47 50.4 °F /  10.2 °C 48.9 °F /  9.4 °C 29.86in /  1011.1hPa Calm   1.0mph /  1.6km/h 95% 0.00in /  0mm 0.0 W/m2
04:53 50.4 °F /  10.2 °C 48.9 °F /  9.4 °C 29.86in /  1011.1hPa Calm   4.0mph /  6.4km/h 95% 0.00in /  0mm 0.0 W/m2
04:59 50.4 °F /  10.2 °C 48.9 °F /  9.4 °C 29.86in /  1011.1hPa Calm   3.0mph /  4.8km/h 95% 0.00in /  0mm 0.0 W/m2
05:05 50.4 °F /  10.2 °C 48.9 °F /  9.4 °C 29.86in /  1011.1hPa East 0.9mph /  1.4km/h 3.0mph /  4.8km/h 95% 0.00in /  0mm 0.0 W/m2
05:11 50.4 °F /  10.2 °C 48.9 °F /  9.4 °C 29.86in /  1011.1hPa East 0.9mph /  1.4km/h 1.0mph /  1.6km/h 95% 0.00in /  0mm 0.0 W/m2
05:17 50.4 °F /  10.2 °C 48.9 °F /  9.4 °C 29.87in /  1011.4hPa ENE 2.0mph /  3.2km/h 2.0mph /  3.2km/h 95% 0.00in /  0mm 0.0 W/m2
05:23 50.2 °F /  10.1 °C 48.7 °F /  9.3 °C 29.86in /  1011.1hPa Calm   1.0mph /  1.6km/h 95% 0.00in /  0mm 0.0 W/m2
05:29 50.2 °F /  10.1 °C 48.7 °F /  9.3 °C 29.86in /  1011.1hPa Calm     95% 0.00in /  0mm 0.0 W/m2
05:37 50.0 °F /  10 °C 48.6 °F /  9.2 °C 29.87in /  1011.4hPa Calm     95% 0.00in /  0mm 0.0 W/m2
05:43 49.8 °F /  9.9 °C 48.4 °F /  9.1 °C 29.87in /  1011.4hPa Calm     95% 0.00in /  0mm 0.0 W/m2
05:49 49.8 °F /  9.9 °C 48.4 °F /  9.1 °C 29.87in /  1011.4hPa Calm     95% 0.00in /  0mm 0.0 W/m2
05:55 49.8 °F /  9.9 °C 48.4 °F /  9.1 °C 29.87in /  1011.4hPa Calm     95% 0.00in /  0mm 0.0 W/m2
06:01 49.8 °F /  9.9 °C 48.4 °F /  9.1 °C 29.87in /  1011.4hPa Calm     95% 0.00in /  0mm 0.0 W/m2
06:07 49.8 °F /  9.9 °C 48.4 °F /  9.1 °C 29.88in /  1011.7hPa Calm     95% 0.00in /  0mm 0.0 W/m2
06:14 49.8 °F /  9.9 °C 48.4 °F /  9.1 °C 29.88in /  1011.7hPa Calm     95% 0.00in /  0mm 5.0 W/m2
06:20 49.8 °F /  9.9 °C 48.4 °F /  9.1 °C 29.88in /  1011.7hPa Calm     95% 0.00in /  0mm 7.0 W/m2
06:26 49.8 °F /  9.9 °C 48.4 °F /  9.1 °C 29.88in /  1011.7hPa Calm     95% 0.00in /  0mm 9.0 W/m2
06:32 49.8 °F /  9.9 °C 48.4 °F /  9.1 °C 29.88in /  1011.7hPa Calm   2.0mph /  3.2km/h 95% 0.00in /  0mm 11.0 W/m2
06:38 50.0 °F /  10 °C 48.9 °F /  9.4 °C 29.88in /  1011.7hPa Calm   1.0mph /  1.6km/h 96% 0.00in /  0mm 12.0 W/m2
06:44 50.2 °F /  10.1 °C 49.1 °F /  9.5 °C 29.88in /  1011.7hPa Calm   1.0mph /  1.6km/h 96% 0.00in /  0mm 14.0 W/m2
06:50 50.5 °F /  10.3 °C 49.5 °F /  9.7 °C 29.89in /  1012.1hPa Calm     96% 0.00in /  0mm 14.0 W/m2
06:57 50.7 °F /  10.4 °C 49.6 °F /  9.8 °C 29.89in /  1012.1hPa Calm     96% 0.00in /  0mm 16.0 W/m2
07:03 51.3 °F /  10.7 °C 50.2 °F /  10.1 °C 29.89in /  1012.1hPa Calm   1.0mph /  1.6km/h 96% 0.00in /  0mm 16.0 W/m2
07:09 51.6 °F /  10.9 °C 50.5 °F /  10.3 °C 29.90in /  1012.4hPa Calm   1.0mph /  1.6km/h 96% 0.00in /  0mm 18.0 W/m2
07:15 52.0 °F /  11.1 °C 50.9 °F /  10.5 °C 29.90in /  1012.4hPa Calm   1.0mph /  1.6km/h 96% 0.00in /  0mm 19.0 W/m2
07:21 52.5 °F /  11.4 °C 51.4 °F /  10.8 °C 29.90in /  1012.4hPa Calm   1.0mph /  1.6km/h 96% 0.00in /  0mm 25.0 W/m2
07:27 53.2 °F /  11.8 °C 52.3 °F /  11.3 °C 29.90in /  1012.4hPa Calm     97% 0.00in /  0mm 21.0 W/m2
07:34 54.0 °F /  12.2 °C 53.1 °F /  11.7 °C 29.90in /  1012.4hPa Calm   1.0mph /  1.6km/h 97% 0.00in /  0mm 21.0 W/m2
07:40 54.5 °F /  12.5 °C 53.6 °F /  12 °C 29.91in /  1012.8hPa Calm     97% 0.00in /  0mm 21.0 W/m2
07:46 54.9 °F /  12.7 °C 54.0 °F /  12.2 °C 29.91in /  1012.8hPa Calm   1.0mph /  1.6km/h 97% 0.00in /  0mm 21.0 W/m2
07:52 55.6 °F /  13.1 °C 54.7 °F /  12.6 °C 29.91in /  1012.8hPa Calm   1.0mph /  1.6km/h 97% 0.00in /  0mm 23.0 W/m2
07:58 56.1 °F /  13.4 °C 55.2 °F /  12.9 °C 29.91in /  1012.8hPa ENE 0.9mph /  1.4km/h 3.0mph /  4.8km/h 97% 0.00in /  0mm 23.0 W/m2
08:04 56.5 °F /  13.6 °C 55.6 °F /  13.1 °C 29.91in /  1012.8hPa NE 2.0mph /  3.2km/h 2.0mph /  3.2km/h 97% 0.00in /  0mm 25.0 W/m2
08:10 56.7 °F /  13.7 °C 55.8 °F /  13.2 °C 29.91in /  1012.8hPa ENE 2.9mph /  4.7km/h 4.0mph /  6.4km/h 97% 0.00in /  0mm 25.0 W/m2
08:17 57.0 °F /  13.9 °C 56.1 °F /  13.4 °C 29.91in /  1012.8hPa Calm   2.0mph /  3.2km/h 97% 0.00in /  0mm 25.0 W/m2
08:23 57.4 °F /  14.1 °C 56.5 °F /  13.6 °C 29.91in /  1012.8hPa North 0.9mph /  1.4km/h 3.0mph /  4.8km/h 97% 0.00in /  0mm 25.0 W/m2
08:29 57.7 °F /  14.3 °C 56.8 °F /  13.8 °C 29.91in /  1012.8hPa NW 2.0mph /  3.2km/h 3.0mph /  4.8km/h 97% 0.00in /  0mm 26.0 W/m2
08:35 57.9 °F /  14.4 °C 56.5 °F /  13.6 °C 29.91in /  1012.8hPa Calm   3.0mph /  4.8km/h 95% 0.00in /  0mm 30.0 W/m2
08:41 58.5 °F /  14.7 °C 56.7 °F /  13.7 °C 29.91in /  1012.8hPa North 2.0mph /  3.2km/h 2.0mph /  3.2km/h 94% 0.00in /  0mm 497.0 W/m2
08:47 59.5 °F /  15.3 °C 57.7 °F /  14.3 °C 29.91in /  1012.8hPa Calm   3.0mph /  4.8km/h 94% 0.00in /  0mm 524.0 W/m2
08:54 60.8 °F /  16 °C 58.1 °F /  14.5 °C 29.92in /  1013.1hPa Calm   1.0mph /  1.6km/h 91% 0.00in /  0mm 555.0 W/m2
09:00 61.5 °F /  16.4 °C 57.9 °F /  14.4 °C 29.92in /  1013.1hPa NNE 2.9mph /  4.7km/h 3.0mph /  4.8km/h 88% 0.00in /  0mm 606.0 W/m2
09:06 62.4 °F /  16.9 °C 57.6 °F /  14.2 °C 29.92in /  1013.1hPa NNW 2.0mph /  3.2km/h 4.0mph /  6.4km/h 84% 0.00in /  0mm 640.0 W/m2
09:12 63.3 °F /  17.4 °C 57.7 °F /  14.3 °C 29.91in /  1012.8hPa NNW 4.0mph /  6.4km/h 6.0mph /  9.7km/h 82% 0.00in /  0mm 661.0 W/m2
09:18 64.2 °F /  17.9 °C 57.6 °F /  14.2 °C 29.91in /  1012.8hPa West 2.9mph /  4.7km/h 5.0mph /  8km/h 79% 0.00in /  0mm 682.0 W/m2
09:24 64.9 °F /  18.3 °C 57.6 °F /  14.2 °C 29.91in /  1012.8hPa NW 0.9mph /  1.4km/h 7.0mph /  11.3km/h 77% 0.00in /  0mm 694.0 W/m2
09:30 65.8 °F /  18.8 °C 57.7 °F /  14.3 °C 29.91in /  1012.8hPa NNW 2.0mph /  3.2km/h 4.0mph /  6.4km/h 75% 0.00in /  0mm 717.0 W/m2
09:36 66.6 °F /  19.2 °C 57.6 °F /  14.2 °C 29.91in /  1012.8hPa NNE 2.9mph /  4.7km/h 5.0mph /  8km/h 73% 0.00in /  0mm 733.0 W/m2
09:42 66.9 °F /  19.4 °C 56.5 °F /  13.6 °C 29.91in /  1012.8hPa NNW 6.9mph /  11.1km/h 8.0mph /  12.9km/h 69% 0.00in /  0mm 745.0 W/m2
09:48 67.3 °F /  19.6 °C 56.8 °F /  13.8 °C 29.91in /  1012.8hPa NE 4.0mph /  6.4km/h 9.0mph /  14.5km/h 69% 0.00in /  0mm 756.0 W/m2
09:55 67.8 °F /  19.9 °C 56.8 °F /  13.8 °C 29.91in /  1012.8hPa NNW 2.0mph /  3.2km/h 7.0mph /  11.3km/h 68% 0.00in /  0mm 772.0 W/m2
10:01 68.7 °F /  20.4 °C 56.5 °F /  13.6 °C 29.91in /  1012.8hPa North 6.0mph /  9.7km/h 8.0mph /  12.9km/h 65% 0.00in /  0mm 784.0 W/m2
10:07 69.1 °F /  20.6 °C 55.6 °F /  13.1 °C 29.92in /  1013.1hPa NNE 2.0mph /  3.2km/h 9.0mph /  14.5km/h 62% 0.00in /  0mm 795.0 W/m2
10:13 69.3 °F /  20.7 °C 54.3 °F /  12.4 °C 29.92in /  1013.1hPa North 4.0mph /  6.4km/h 7.0mph /  11.3km/h 59% 0.00in /  0mm 810.0 W/m2
10:19 69.8 °F /  21 °C 54.3 °F /  12.4 °C 29.92in /  1013.1hPa WSW 0.9mph /  1.4km/h 5.0mph /  8km/h 58% 0.00in /  0mm 816.0 W/m2
10:25 70.2 °F /  21.2 °C 54.1 °F /  12.3 °C 29.91in /  1012.8hPa NW 8.1mph /  13km/h 10.0mph /  16.1km/h 57% 0.00in /  0mm 821.0 W/m2
10:31 70.5 °F /  21.4 °C 54.5 °F /  12.5 °C 29.92in /  1013.1hPa NNW 4.0mph /  6.4km/h 8.0mph /  12.9km/h 57% 0.00in /  0mm 856.0 W/m2
10:37 71.1 °F /  21.7 °C 55.6 °F /  13.1 °C 29.92in /  1013.1hPa North 6.0mph /  9.7km/h 11.0mph /  17.7km/h 58% 0.00in /  0mm 854.0 W/m2
10:43 71.4 °F /  21.9 °C 54.5 °F /  12.5 °C 29.91in /  1012.8hPa NNW 4.9mph /  7.9km/h 7.0mph /  11.3km/h 55% 0.00in /  0mm 861.0 W/m2
10:50 71.8 °F /  22.1 °C 52.7 °F /  11.5 °C 29.92in /  1013.1hPa West 2.0mph /  3.2km/h 6.0mph /  9.7km/h 51% 0.00in /  0mm 854.0 W/m2
10:56 72.1 °F /  22.3 °C 49.6 °F /  9.8 °C 29.91in /  1012.8hPa NW 2.0mph /  3.2km/h 9.0mph /  14.5km/h 45% 0.00in /  0mm 865.0 W/m2
11:02 72.5 °F /  22.5 °C 50.5 °F /  10.3 °C 29.91in /  1012.8hPa NE 0.9mph /  1.4km/h 7.0mph /  11.3km/h 46% 0.00in /  0mm 868.0 W/m2
11:08 72.3 °F /  22.4 °C 49.8 °F /  9.9 °C 29.91in /  1012.8hPa North 6.0mph /  9.7km/h 12.0mph /  19.3km/h 45% 0.00in /  0mm 879.0 W/m2
11:14 72.5 °F /  22.5 °C 51.1 °F /  10.6 °C 29.91in /  1012.8hPa NNE 6.9mph /  11.1km/h 8.0mph /  12.9km/h 47% 0.00in /  0mm 879.0 W/m2
11:20 72.9 °F /  22.7 °C 48.4 °F /  9.1 °C 29.91in /  1012.8hPa NNW 8.9mph /  14.3km/h 12.0mph /  19.3km/h 42% 0.00in /  0mm 889.0 W/m2
11:26 72.9 °F /  22.7 °C 47.8 °F /  8.8 °C 29.91in /  1012.8hPa North 6.9mph /  11.1km/h 7.0mph /  11.3km/h 41% 0.00in /  0mm 893.0 W/m2
11:32 72.9 °F /  22.7 °C 49.1 °F /  9.5 °C 29.91in /  1012.8hPa NNW 4.0mph /  6.4km/h 7.0mph /  11.3km/h 43% 0.00in /  0mm 882.0 W/m2
11:39 73.0 °F /  22.8 °C 48.0 °F /  8.9 °C 29.91in /  1012.8hPa NW 6.0mph /  9.7km/h 12.0mph /  19.3km/h 41% 0.00in /  0mm 888.0 W/m2
11:45 73.2 °F /  22.9 °C 48.0 °F /  8.9 °C 29.91in /  1012.8hPa North 6.9mph /  11.1km/h 7.0mph /  11.3km/h 41% 0.00in /  0mm 891.0 W/m2
11:51 73.6 °F /  23.1 °C 49.1 °F /  9.5 °C 29.90in /  1012.4hPa North 4.9mph /  7.9km/h 7.0mph /  11.3km/h 42% 0.00in /  0mm 891.0 W/m2
11:57 73.6 °F /  23.1 °C 47.1 °F /  8.4 °C 29.90in /  1012.4hPa NNE 6.9mph /  11.1km/h 12.0mph /  19.3km/h 39% 0.00in /  0mm 886.0 W/m2
12:03 73.8 °F /  23.2 °C 45.9 °F /  7.7 °C 29.90in /  1012.4hPa North 4.9mph /  7.9km/h 12.0mph /  19.3km/h 37% 0.00in /  0mm 889.0 W/m2
12:09 73.9 °F /  23.3 °C 47.5 °F /  8.6 °C 29.90in /  1012.4hPa North 6.0mph /  9.7km/h 9.0mph /  14.5km/h 39% 0.01in /  0.25mm 888.0 W/m2
12:15 73.8 °F /  23.2 °C 48.0 °F /  8.9 °C 29.89in /  1012.1hPa NNW 2.0mph /  3.2km/h 6.0mph /  9.7km/h 40% 0.01in /  0.25mm 872.0 W/m2
12:21 73.8 °F /  23.2 °C 47.3 °F /  8.5 °C 29.89in /  1012.1hPa NNW 8.9mph /  14.3km/h 9.0mph /  14.5km/h 39% 0.01in /  0.25mm 872.0 W/m2
12:27 73.6 °F /  23.1 °C 49.1 °F /  9.5 °C 29.88in /  1011.7hPa NE 0.9mph /  1.4km/h 5.0mph /  8km/h 42% 0.01in /  0.25mm 868.0 W/m2
12:34 73.6 °F /  23.1 °C 47.8 °F /  8.8 °C 29.88in /  1011.7hPa North 6.0mph /  9.7km/h 12.0mph /  19.3km/h 40% 0.01in /  0.25mm 865.0 W/m2
12:40 73.4 °F /  23 °C 46.9 °F /  8.3 °C 29.88in /  1011.7hPa NNW 2.9mph /  4.7km/h 3.0mph /  4.8km/h 39% 0.01in /  0.25mm 861.0 W/m2
12:46 73.2 °F /  22.9 °C 46.8 °F /  8.2 °C 29.88in /  1011.7hPa NNE 4.9mph /  7.9km/h 12.0mph /  19.3km/h 39% 0.01in /  0.25mm 851.0 W/m2
12:52 73.2 °F /  22.9 °C 47.5 °F /  8.6 °C 29.88in /  1011.7hPa WNW 13.0mph /  20.9km/h 13.0mph /  20.9km/h 40% 0.01in /  0.25mm 837.0 W/m2
12:58 73.2 °F /  22.9 °C 46.0 °F /  7.8 °C 29.88in /  1011.7hPa Calm   11.0mph /  17.7km/h 38% 0.01in /  0.25mm 833.0 W/m2
13:04 73.6 °F /  23.1 °C 47.8 °F /  8.8 °C 29.87in /  1011.4hPa NE 4.9mph /  7.9km/h 12.0mph /  19.3km/h 40% 0.01in /  0.25mm 824.0 W/m2
13:10 73.8 °F /  23.2 °C 45.9 °F /  7.7 °C 29.87in /  1011.4hPa North 6.9mph /  11.1km/h 12.0mph /  19.3km/h 37% 0.00in /  0mm 814.0 W/m2
13:16 73.9 °F /  23.3 °C 46.0 °F /  7.8 °C 29.86in /  1011.1hPa NW 6.0mph /  9.7km/h 8.0mph /  12.9km/h 37% 0.00in /  0mm 805.0 W/m2
13:23 74.7 °F /  23.7 °C 45.9 °F /  7.7 °C 29.86in /  1011.1hPa Calm   5.0mph /  8km/h 36% 0.00in /  0mm 788.0 W/m2
13:29 75.0 °F /  23.9 °C 46.2 °F /  7.9 °C 29.86in /  1011.1hPa Calm   10.0mph /  16.1km/h 36% 0.00in /  0mm 786.0 W/m2
13:35 75.6 °F /  24.2 °C 43.7 °F /  6.5 °C 29.86in /  1011.1hPa Calm   6.0mph /  9.7km/h 32% 0.00in /  0mm 772.0 W/m2
13:41 75.6 °F /  24.2 °C 41.0 °F /  5 °C 29.86in /  1011.1hPa SW 4.9mph /  7.9km/h 9.0mph /  14.5km/h 29% 0.00in /  0mm 770.0 W/m2
13:47 75.6 °F /  24.2 °C 43.7 °F /  6.5 °C 29.85in /  1010.7hPa West 4.9mph /  7.9km/h 5.0mph /  8km/h 32% 0.00in /  0mm 754.0 W/m2
13:53 75.6 °F /  24.2 °C 43.7 °F /  6.5 °C 29.85in /  1010.7hPa SW 2.9mph /  4.7km/h 9.0mph /  14.5km/h 32% 0.00in /  0mm 740.0 W/m2
13:59 75.7 °F /  24.3 °C 43.0 °F /  6.1 °C 29.85in /  1010.7hPa WNW 2.9mph /  4.7km/h 8.0mph /  12.9km/h 31% 0.00in /  0mm 726.0 W/m2
14:05 75.6 °F /  24.2 °C 43.7 °F /  6.5 °C 29.85in /  1010.7hPa WNW 2.9mph /  4.7km/h 10.0mph /  16.1km/h 32% 0.00in /  0mm 708.0 W/m2
14:11 75.9 °F /  24.4 °C 45.5 °F /  7.5 °C 29.84in /  1010.4hPa North 0.9mph /  1.4km/h 5.0mph /  8km/h 34% 0.00in /  0mm 696.0 W/m2
14:17 76.3 °F /  24.6 °C 46.6 °F /  8.1 °C 29.84in /  1010.4hPa NW 0.9mph /  1.4km/h 8.0mph /  12.9km/h 35% 0.00in /  0mm 700.0 W/m2
14:23 76.1 °F /  24.5 °C 46.4 °F /  8 °C 29.84in /  1010.4hPa NNW 2.9mph /  4.7km/h 7.0mph /  11.3km/h 35% 0.00in /  0mm 722.0 W/m2
14:29 76.3 °F /  24.6 °C 47.3 °F /  8.5 °C 29.84in /  1010.4hPa WSW 2.0mph /  3.2km/h 8.0mph /  12.9km/h 36% 0.00in /  0mm 689.0 W/m2
14:33 76.5 °F /  24.7 °C 46.8 °F /  8.2 °C 29.83in /  1010hPa NE 4.0mph /  6.4km/h 7.0mph /  11.3km/h 35% 0.00in /  0mm 671.0 W/m2
14:39 76.6 °F /  24.8 °C 46.9 °F /  8.3 °C 29.83in /  1010hPa Calm   7.0mph /  11.3km/h 35% 0.00in /  0mm 631.0 W/m2
14:45 76.6 °F /  24.8 °C 46.9 °F /  8.3 °C 29.83in /  1010hPa WSW 0.9mph /  1.4km/h 5.0mph /  8km/h 35% 0.00in /  0mm 608.0 W/m2
14:51 76.8 °F /  24.9 °C 47.8 °F /  8.8 °C 29.83in /  1010hPa Calm   6.0mph /  9.7km/h 36% 0.00in /  0mm 596.0 W/m2
14:58 77.0 °F /  25 °C 47.3 °F /  8.5 °C 29.83in /  1010hPa WSW 4.0mph /  6.4km/h 6.0mph /  9.7km/h 35% 0.00in /  0mm 564.0 W/m2
15:04 77.2 °F /  25.1 °C 47.5 °F /  8.6 °C 29.83in /  1010hPa WSW 0.9mph /  1.4km/h 3.0mph /  4.8km/h 35% 0.00in /  0mm 536.0 W/m2
15:10 77.0 °F /  25 °C 48.0 °F /  8.9 °C 29.83in /  1010hPa West 2.9mph /  4.7km/h 9.0mph /  14.5km/h 36% 0.00in /  0mm 527.0 W/m2
15:16 76.8 °F /  24.9 °C 47.1 °F /  8.4 °C 29.83in /  1010hPa SW 4.0mph /  6.4km/h 4.0mph /  6.4km/h 35% 0.00in /  0mm 520.0 W/m2
15:22 75.9 °F /  24.4 °C 47.8 °F /  8.8 °C 29.83in /  1010hPa WNW 2.9mph /  4.7km/h 10.0mph /  16.1km/h 37% 0.00in /  0mm 508.0 W/m2
15:28 75.6 °F /  24.2 °C 46.0 °F /  7.8 °C 29.83in /  1010hPa NNW 2.0mph /  3.2km/h 5.0mph /  8km/h 35% 0.00in /  0mm 461.0 W/m2
15:34 75.9 °F /  24.4 °C 48.6 °F /  9.2 °C 29.82in /  1009.7hPa WSW 0.9mph /  1.4km/h 7.0mph /  11.3km/h 38% 0.00in /  0mm 441.0 W/m2
15:40 76.3 °F /  24.6 °C 48.7 °F /  9.3 °C 29.82in /  1009.7hPa NW 0.9mph /  1.4km/h 4.0mph /  6.4km/h 38% 0.00in /  0mm 425.0 W/m2
15:46 76.5 °F /  24.7 °C 48.9 °F /  9.4 °C 29.82in /  1009.7hPa WSW 0.9mph /  1.4km/h 3.0mph /  4.8km/h 38% 0.00in /  0mm 399.0 W/m2
15:53 76.3 °F /  24.6 °C 48.0 °F /  8.9 °C 29.82in /  1009.7hPa Calm   7.0mph /  11.3km/h 37% 0.00in /  0mm 369.0 W/m2
15:59 75.9 °F /  24.4 °C 47.8 °F /  8.8 °C 29.82in /  1009.7hPa NNW 8.9mph /  14.3km/h 9.0mph /  14.5km/h 37% 0.00in /  0mm 387.0 W/m2
16:05 75.6 °F /  24.2 °C 46.8 °F /  8.2 °C 29.82in /  1009.7hPa Calm   5.0mph /  8km/h 36% 0.00in /  0mm 336.0 W/m2
16:11 75.0 °F /  23.9 °C 46.9 °F /  8.3 °C 29.82in /  1009.7hPa Calm   3.0mph /  4.8km/h 37% 0.00in /  0mm 306.0 W/m2
16:17 74.8 °F /  23.8 °C 45.3 °F /  7.4 °C 29.82in /  1009.7hPa NNE 0.9mph /  1.4km/h 6.0mph /  9.7km/h 35% 0.00in /  0mm 44.0 W/m2
16:23 74.5 °F /  23.6 °C 45.9 °F /  7.7 °C 29.82in /  1009.7hPa NNW 2.0mph /  3.2km/h 5.0mph /  8km/h 36% 0.00in /  0mm 39.0 W/m2
16:29 73.8 °F /  23.2 °C 44.4 °F /  6.9 °C 29.82in /  1009.7hPa West 4.9mph /  7.9km/h 11.0mph /  17.7km/h 35% 0.00in /  0mm 32.0 W/m2
16:35 73.0 °F /  22.8 °C 44.4 °F /  6.9 °C 29.82in /  1009.7hPa NW 2.0mph /  3.2km/h 6.0mph /  9.7km/h 36% 0.00in /  0mm 28.0 W/m2
16:42 72.7 °F /  22.6 °C 45.0 °F /  7.2 °C 29.82in /  1009.7hPa Calm   8.0mph /  12.9km/h 37% 0.00in /  0mm 25.0 W/m2
16:48 72.1 °F /  22.3 °C 45.9 °F /  7.7 °C 29.82in /  1009.7hPa NNW 0.9mph /  1.4km/h 3.0mph /  4.8km/h 39% 0.00in /  0mm 49.0 W/m2
16:54 71.8 °F /  22.1 °C 44.8 °F /  7.1 °C 29.82in /  1009.7hPa NNW 4.9mph /  7.9km/h 6.0mph /  9.7km/h 38% 0.00in /  0mm 28.0 W/m2
17:00 71.4 °F /  21.9 °C 44.4 °F /  6.9 °C 29.82in /  1009.7hPa SSW 0.9mph /  1.4km/h 6.0mph /  9.7km/h 38% 0.00in /  0mm 25.0 W/m2
17:06 71.1 °F /  21.7 °C 45.5 °F /  7.5 °C 29.81in /  1009.4hPa North 2.9mph /  4.7km/h 4.0mph /  6.4km/h 40% 0.00in /  0mm 19.0 W/m2
17:12 70.9 °F /  21.6 °C 46.6 °F /  8.1 °C 29.81in /  1009.4hPa Calm   2.0mph /  3.2km/h 42% 0.00in /  0mm 16.0 W/m2
17:18 70.5 °F /  21.4 °C 46.9 °F /  8.3 °C 29.82in /  1009.7hPa Calm   1.0mph /  1.6km/h 43% 0.00in /  0mm 12.0 W/m2
17:24 70.2 °F /  21.2 °C 47.3 °F /  8.5 °C 29.82in /  1009.7hPa Calm   4.0mph /  6.4km/h 44% 0.00in /  0mm 11.0 W/m2
17:30 69.6 °F /  20.9 °C 46.2 °F /  7.9 °C 29.82in /  1009.7hPa Calm   4.0mph /  6.4km/h 43% 0.00in /  0mm 7.0 W/m2
17:36 69.3 °F /  20.7 °C 47.7 °F /  8.7 °C 29.82in /  1009.7hPa Calm   2.0mph /  3.2km/h 46% 0.00in /  0mm 5.0 W/m2
17:43 69.1 °F /  20.6 °C 48.0 °F /  8.9 °C 29.82in /  1009.7hPa Calm     47% 0.00in /  0mm 0.0 W/m2
17:49 68.5 °F /  20.3 °C 47.5 °F /  8.6 °C 29.83in /  1010hPa Calm   1.0mph /  1.6km/h 47% 0.00in /  0mm 0.0 W/m2
17:55 68.0 °F /  20 °C 47.7 °F /  8.7 °C 29.83in /  1010hPa Calm   1.0mph /  1.6km/h 48% 0.00in /  0mm 0.0 W/m2
18:01 67.6 °F /  19.8 °C 47.8 °F /  8.8 °C 29.83in /  1010hPa Calm   1.0mph /  1.6km/h 49% 0.00in /  0mm 0.0 W/m2
18:07 67.3 °F /  19.6 °C 48.0 °F /  8.9 °C 29.83in /  1010hPa SW 0.9mph /  1.4km/h 2.0mph /  3.2km/h 50% 0.00in /  0mm 0.0 W/m2
18:13 66.9 °F /  19.4 °C 47.7 °F /  8.7 °C 29.83in /  1010hPa Calm   1.0mph /  1.6km/h 50% 0.00in /  0mm 0.0 W/m2
18:19 66.6 °F /  19.2 °C 47.8 °F /  8.8 °C 29.83in /  1010hPa Calm   1.0mph /  1.6km/h 51% 0.00in /  0mm 0.0 W/m2
18:26 66.4 °F /  19.1 °C 48.2 °F /  9 °C 29.84in /  1010.4hPa Calm     52% 0.00in /  0mm 0.0 W/m2
18:32 65.8 °F /  18.8 °C 48.2 °F /  9 °C 29.84in /  1010.4hPa Calm   1.0mph /  1.6km/h 53% 0.00in /  0mm 0.0 W/m2
18:38 65.5 °F /  18.6 °C 48.4 °F /  9.1 °C 29.84in /  1010.4hPa Calm   1.0mph /  1.6km/h 54% 0.00in /  0mm 0.0 W/m2
18:44 64.9 °F /  18.3 °C 48.4 °F /  9.1 °C 29.84in /  1010.4hPa Calm     55% 0.00in /  0mm 0.0 W/m2
18:50 64.6 °F /  18.1 °C 48.6 °F /  9.2 °C 29.84in /  1010.4hPa Calm     56% 0.00in /  0mm 0.0 W/m2
18:56 64.0 °F /  17.8 °C 48.6 °F /  9.2 °C 29.84in /  1010.4hPa Calm     57% 0.00in /  0mm 0.0 W/m2
19:02 63.9 °F /  17.7 °C 49.3 °F /  9.6 °C 29.84in /  1010.4hPa Calm     59% 0.00in /  0mm 0.0 W/m2
19:08 63.3 °F /  17.4 °C 49.6 °F /  9.8 °C 29.85in /  1010.7hPa Calm     61% 0.00in /  0mm 0.0 W/m2
19:14 63.0 °F /  17.2 °C 49.8 °F /  9.9 °C 29.85in /  1010.7hPa Calm     62% 0.00in /  0mm 0.0 W/m2
19:20 62.4 °F /  16.9 °C 48.7 °F /  9.3 °C 29.85in /  1010.7hPa Calm     61% 0.00in /  0mm 0.0 W/m2
19:26 62.1 °F /  16.7 °C 46.6 °F /  8.1 °C 29.85in /  1010.7hPa Calm     57% 0.00in /  0mm 0.0 W/m2
19:32 61.5 °F /  16.4 °C 44.8 °F /  7.1 °C 29.86in /  1011.1hPa Calm     54% 0.00in /  0mm 0.0 W/m2
19:39 61.3 °F /  16.3 °C 44.1 °F /  6.7 °C 29.86in /  1011.1hPa Calm     53% 0.00in /  0mm 0.0 W/m2
19:45 61.2 °F /  16.2 °C 44.4 °F /  6.9 °C 29.86in /  1011.1hPa Calm     54% 0.00in /  0mm 0.0 W/m2
19:51 61.0 °F /  16.1 °C 43.7 °F /  6.5 °C 29.86in /  1011.1hPa Calm   3.0mph /  4.8km/h 53% 0.00in /  0mm 0.0 W/m2
19:57 61.0 °F /  16.1 °C 45.1 °F /  7.3 °C 29.87in /  1011.4hPa SW 0.9mph /  1.4km/h 1.0mph /  1.6km/h 56% 0.00in /  0mm 0.0 W/m2
20:03 60.6 °F /  15.9 °C 46.6 °F /  8.1 °C 29.87in /  1011.4hPa Calm   1.0mph /  1.6km/h 60% 0.00in /  0mm 0.0 W/m2
20:09 60.3 °F /  15.7 °C 47.1 °F /  8.4 °C 29.87in /  1011.4hPa Calm     62% 0.00in /  0mm 0.0 W/m2
20:16 59.9 °F /  15.5 °C 47.7 °F /  8.7 °C 29.88in /  1011.7hPa Calm     64% 0.00in /  0mm 0.0 W/m2
20:22 59.4 °F /  15.2 °C 47.1 °F /  8.4 °C 29.88in /  1011.7hPa Calm     64% 0.00in /  0mm 0.0 W/m2
20:28 59.2 °F /  15.1 °C 46.9 °F /  8.3 °C 29.88in /  1011.7hPa Calm     64% 0.00in /  0mm 0.0 W/m2
20:34 58.8 °F /  14.9 °C 46.6 °F /  8.1 °C 29.88in /  1011.7hPa Calm     64% 0.00in /  0mm 0.0 W/m2
20:40 58.5 °F /  14.7 °C 46.4 °F /  8 °C 29.88in /  1011.7hPa Calm     64% 0.00in /  0mm 0.0 W/m2
20:46 58.3 °F /  14.6 °C 46.9 °F /  8.3 °C 29.88in /  1011.7hPa Calm     66% 0.00in /  0mm 0.0 W/m2
20:52 57.9 °F /  14.4 °C 46.2 °F /  7.9 °C 29.89in /  1012.1hPa Calm   1.0mph /  1.6km/h 65% 0.00in /  0mm 0.0 W/m2
20:59 57.7 °F /  14.3 °C 46.4 °F /  8 °C 29.89in /  1012.1hPa Calm   2.0mph /  3.2km/h 66% 0.00in /  0mm 0.0 W/m2
21:05 57.6 °F /  14.2 °C 46.8 °F /  8.2 °C 29.89in /  1012.1hPa Calm   1.0mph /  1.6km/h 67% 0.00in /  0mm 0.0 W/m2
21:11 57.4 °F /  14.1 °C 47.3 °F /  8.5 °C 29.89in /  1012.1hPa East 0.9mph /  1.4km/h 3.0mph /  4.8km/h 69% 0.00in /  0mm 0.0 W/m2
21:17 57.2 °F /  14 °C 47.1 °F /  8.4 °C 29.89in /  1012.1hPa Calm     69% 0.00in /  0mm 0.0 W/m2
21:23 57.0 °F /  13.9 °C 47.3 °F /  8.5 °C 29.89in /  1012.1hPa ENE 2.9mph /  4.7km/h 3.0mph /  4.8km/h 70% 0.00in /  0mm 0.0 W/m2
21:29 56.8 °F /  13.8 °C 47.5 °F /  8.6 °C 29.89in /  1012.1hPa East 0.9mph /  1.4km/h 3.0mph /  4.8km/h 71% 0.00in /  0mm 0.0 W/m2
21:35 56.7 °F /  13.7 °C 47.7 °F /  8.7 °C 29.89in /  1012.1hPa Calm   2.0mph /  3.2km/h 72% 0.00in /  0mm 0.0 W/m2
21:42 56.5 °F /  13.6 °C 48.0 °F /  8.9 °C 29.90in /  1012.4hPa Calm   3.0mph /  4.8km/h 73% 0.00in /  0mm 0.0 W/m2
21:48 56.1 °F /  13.4 °C 48.0 °F /  8.9 °C 29.90in /  1012.4hPa ENE 2.0mph /  3.2km/h 4.0mph /  6.4km/h 74% 0.00in /  0mm 0.0 W/m2
21:54 56.1 °F /  13.4 °C 48.0 °F /  8.9 °C 29.90in /  1012.4hPa Calm   1.0mph /  1.6km/h 74% 0.00in /  0mm 0.0 W/m2
22:00 55.9 °F /  13.3 °C 47.8 °F /  8.8 °C 29.90in /  1012.4hPa Calm   3.0mph /  4.8km/h 74% 0.00in /  0mm 0.0 W/m2
22:06 55.8 °F /  13.2 °C 47.7 °F /  8.7 °C 29.90in /  1012.4hPa Calm   3.0mph /  4.8km/h 74% 0.00in /  0mm 0.0 W/m2
22:12 55.6 °F /  13.1 °C 47.8 °F /  8.8 °C 29.90in /  1012.4hPa Calm   2.0mph /  3.2km/h 75% 0.00in /  0mm 0.0 W/m2
22:19 55.4 °F /  13 °C 47.7 °F /  8.7 °C 29.90in /  1012.4hPa ENE 2.0mph /  3.2km/h 3.0mph /  4.8km/h 75% 0.00in /  0mm 0.0 W/m2
22:25 55.2 °F /  12.9 °C 47.5 °F /  8.6 °C 29.90in /  1012.4hPa Calm   2.0mph /  3.2km/h 75% 0.00in /  0mm 0.0 W/m2
22:31 55.0 °F /  12.8 °C 46.9 °F /  8.3 °C 29.90in /  1012.4hPa East 0.9mph /  1.4km/h 4.0mph /  6.4km/h 74% 0.00in /  0mm 0.0 W/m2
22:37 55.0 °F /  12.8 °C 47.3 °F /  8.5 °C 29.90in /  1012.4hPa East 0.9mph /  1.4km/h 3.0mph /  4.8km/h 75% 0.00in /  0mm 0.0 W/m2
22:43 54.9 °F /  12.7 °C 47.1 °F /  8.4 °C 29.90in /  1012.4hPa Calm     75% 0.00in /  0mm 0.0 W/m2
22:49 54.7 °F /  12.6 °C 46.9 °F /  8.3 °C 29.90in /  1012.4hPa Calm     75% 0.00in /  0mm 0.0 W/m2
22:55 54.5 °F /  12.5 °C 46.8 °F /  8.2 °C 29.90in /  1012.4hPa Calm     75% 0.00in /  0mm 0.0 W/m2
22:57 54.5 °F /  12.5 °C 46.8 °F /  8.2 °C 29.91in /  1012.8hPa Calm     75% 0.00in /  0mm 0.0 W/m2
23:03 54.3 °F /  12.4 °C 47.3 °F /  8.5 °C 29.91in /  1012.8hPa Calm   1.0mph /  1.6km/h 77% 0.00in /  0mm 0.0 W/m2
23:09 54.0 °F /  12.2 °C 46.6 °F /  8.1 °C 29.91in /  1012.8hPa ESE 0.9mph /  1.4km/h 3.0mph /  4.8km/h 76% 0.00in /  0mm 0.0 W/m2
23:15 53.8 °F /  12.1 °C 46.8 °F /  8.2 °C 29.91in /  1012.8hPa Calm   1.0mph /  1.6km/h 77% 0.00in /  0mm 0.0 W/m2
23:21 53.4 °F /  11.9 °C 46.8 °F /  8.2 °C 29.91in /  1012.8hPa SE 2.0mph /  3.2km/h 2.0mph /  3.2km/h 78% 0.00in /  0mm 0.0 W/m2
23:27 53.4 °F /  11.9 °C 46.8 °F /  8.2 °C 29.91in /  1012.8hPa East 2.9mph /  4.7km/h 5.0mph /  8km/h 78% 0.00in /  0mm 0.0 W/m2
23:33 53.2 °F /  11.8 °C 46.6 °F /  8.1 °C 29.91in /  1012.8hPa Calm     78% 0.00in /  0mm 0.0 W/m2
23:39 53.2 °F /  11.8 °C 46.9 °F /  8.3 °C 29.90in /  1012.4hPa Calm   2.0mph /  3.2km/h 79% 0.00in /  0mm 0.0 W/m2
23:45 53.1 °F /  11.7 °C 46.8 °F /  8.2 °C 29.90in /  1012.4hPa NE 2.0mph /  3.2km/h 3.0mph /  4.8km/h 79% 0.00in /  0mm 0.0 W/m2
23:51 52.9 °F /  11.6 °C 46.9 °F /  8.3 °C 29.90in /  1012.4hPa Calm   2.0mph /  3.2km/h 80% 0.00in /  0mm 0.0 W/m2
23:57 52.5 °F /  11.4 °C 46.2 °F /  7.9 °C 29.90in /  1012.4hPa Calm   1.0mph /  1.6km/h 79% 0.00in /  0mm 0.0 W/m2
Olympia, Windhoek, Namibia
Compliments of Weather Underground - 3 mb